Time;durP1;ratioP1;P1;durP2;ratioP2;P2;SDS_P1;SDS_P2;PMS_P1;PMS_P2;Temp;Humidity;BMP_temperature;BMP_pressure;BME280_temperature;BME280_humidity;BME280_pressure;Samples;Min_cycle;Max_cycle;Signal;HPM_P1;HPM_P2
2023/07/12 00:00:21;;;;;;;;;;;16.60;71.10;;;;;;4954114;28;19925;-73
2023/07/12 00:02:47;;;;;;;;;;;16.60;71.20;;;;;;4986093;28;19965;-73
2023/07/12 00:05:12;;;;;;;;;;;16.60;71.20;;;;;;4971190;28;19914;-73
2023/07/12 00:07:38;;;;;;;;;;;16.60;71.20;;;;;;4971261;28;19956;-73
2023/07/12 00:10:11;;;;;;;;;;;16.60;71.30;;;;;;4971122;28;19929;-73
2023/07/12 00:12:36;;;;;;;;;;;16.60;71.30;;;;;;4986115;28;19914;-73
2023/07/12 00:15:02;;;;;;;;;;;16.60;71.30;;;;;;4971223;28;19925;-73
2023/07/12 00:17:28;;;;;;;;;;;16.60;71.30;;;;;;4971088;28;20325;-73
2023/07/12 00:19:53;;;;;;;;;;;16.60;71.30;;;;;;4971015;28;20130;-73
2023/07/12 00:22:19;;;;;;;;;;;16.60;71.30;;;;;;4953663;28;20385;-73
2023/07/12 00:24:44;;;;;;;;;;;16.60;71.30;;;;;;4969597;28;19914;-73
2023/07/12 00:27:10;;;;;;;;;;;16.60;71.30;;;;;;4970882;28;19919;-73
2023/07/12 00:29:36;;;;;;;;;;;16.50;71.30;;;;;;4970685;28;20401;-73
2023/07/12 00:32:01;;;;;;;;;;;16.60;71.30;;;;;;4985862;28;19922;-73
2023/07/12 00:34:27;;;;;;;;;;;16.50;71.20;;;;;;4970950;28;19914;-73
2023/07/12 00:36:52;;;;;;;;;;;16.40;71.10;;;;;;4970728;28;20413;-73
2023/07/12 00:39:18;;;;;;;;;;;16.40;71.10;;;;;;4985623;28;20329;-73
2023/07/12 00:41:46;;;;;;;;;;;16.30;71.00;;;;;;4970606;28;20488;-73
2023/07/12 00:44:18;;;;;;;;;;;16.20;70.90;;;;;;4970707;28;19996;-73
2023/07/12 00:46:52;;;;;;;;;;;16.00;70.90;;;;;;4970609;28;19910;-73
2023/07/12 00:49:17;;;;;;;;;;;16.00;71.10;;;;;;4985317;28;19917;-73
2023/07/12 00:51:47;;;;;;;;;;;16.00;71.20;;;;;;4969211;28;20365;-73
2023/07/12 00:54:14;;;;;;;;;;;15.90;71.20;;;;;;4970511;28;19910;-73
2023/07/12 00:56:39;;;;;;;;;;;15.90;71.30;;;;;;4970386;28;19954;-73
2023/07/12 00:59:10;;;;;;;;;;;15.90;71.30;;;;;;4970389;28;19937;-73
2023/07/12 01:01:37;;;;;;;;;;;15.90;71.30;;;;;;4985099;28;19918;-73
2023/07/12 01:04:03;;;;;;;;;;;16.00;71.40;;;;;;4985226;28;20021;-73
2023/07/12 01:06:30;;;;;;;;;;;16.00;71.30;;;;;;4985094;28;19914;-73
2023/07/12 01:08:57;;;;;;;;;;;16.00;71.30;;;;;;4967989;28;19925;-73
2023/07/12 01:11:22;;;;;;;;;;;16.00;71.20;;;;;;4970411;28;19910;-73
2023/07/12 01:13:49;;;;;;;;;;;16.00;71.20;;;;;;4970047;28;19917;-73
2023/07/12 01:16:16;;;;;;;;;;;16.00;71.10;;;;;;4970251;28;19957;-73
2023/07/12 01:18:42;;;;;;;;;;;15.90;71.00;;;;;;4970095;28;19914;-73
2023/07/12 01:21:09;;;;;;;;;;;15.90;71.10;;;;;;4971140;28;19960;-73
2023/07/12 01:23:35;;;;;;;;;;;15.90;71.20;;;;;;4969941;28;19929;-73
2023/07/12 01:26:12;;;;;;;;;;;15.80;71.10;;;;;;4969923;28;19910;-73
2023/07/12 01:28:39;;;;;;;;;;;15.80;71.20;;;;;;4969623;28;19922;-73
2023/07/12 01:31:05;;;;;;;;;;;15.80;71.20;;;;;;4969822;28;20017;-73
2023/07/12 01:33:31;;;;;;;;;;;15.80;71.20;;;;;;4969919;28;19954;-73
2023/07/12 01:35:56;;;;;;;;;;;15.90;71.30;;;;;;4969909;28;20416;-73
2023/07/12 01:38:22;;;;;;;;;;;15.90;71.30;;;;;;4969620;28;19914;-73
2023/07/12 01:40:48;;;;;;;;;;;15.80;71.20;;;;;;4969652;28;19918;-73
2023/07/12 01:43:14;;;;;;;;;;;15.80;71.20;;;;;;4969727;28;19932;-73
2023/07/12 01:45:39;;;;;;;;;;;15.80;71.20;;;;;;4952250;28;20000;-73
2023/07/12 01:48:05;;;;;;;;;;;15.80;71.20;;;;;;4984678;28;19920;-73
2023/07/12 01:50:31;;;;;;;;;;;15.80;71.30;;;;;;4969568;28;19914;-73
2023/07/12 01:52:56;;;;;;;;;;;15.80;71.40;;;;;;4969486;28;20389;-73
2023/07/12 01:55:22;;;;;;;;;;;15.80;71.40;;;;;;4969546;28;19914;-73
2023/07/12 01:57:47;;;;;;;;;;;15.90;71.40;;;;;;4984288;28;19928;-73
2023/07/12 02:00:13;;;;;;;;;;;15.90;71.40;;;;;;4951888;28;19986;-73
2023/07/12 02:02:39;;;;;;;;;;;15.80;71.30;;;;;;4984169;28;19927;-73
2023/07/12 02:05:06;;;;;;;;;;;15.80;71.30;;;;;;4969391;28;19957;-73
2023/07/12 02:07:32;;;;;;;;;;;15.70;71.40;;;;;;4969455;28;19910;-73
2023/07/12 02:10:27;;;;;;;;;;;15.60;71.30;;;;;;4969640;28;20425;-72
2023/07/12 02:12:52;;;;;;;;;;;15.60;71.40;;;;;;4960470;28;19937;-74
2023/07/12 02:15:19;;;;;;;;;;;15.50;71.40;;;;;;4969327;28;19910;-74
2023/07/12 02:17:44;;;;;;;;;;;15.40;71.50;;;;;;4969136;28;19910;-74
2023/07/12 02:20:10;;;;;;;;;;;15.30;71.50;;;;;;4970674;28;19989;-74
2023/07/12 02:22:37;;;;;;;;;;;15.40;71.60;;;;;;4955673;28;20448;-74
2023/07/12 02:25:04;;;;;;;;;;;15.30;71.60;;;;;;4955822;28;20263;-74
2023/07/12 02:27:30;;;;;;;;;;;15.40;71.60;;;;;;4972948;28;19922;-75
2023/07/12 02:29:55;;;;;;;;;;;15.40;71.60;;;;;;4973117;28;19957;-75
2023/07/12 02:32:22;;;;;;;;;;;15.30;71.50;;;;;;4973060;28;20000;-74
2023/07/12 02:34:49;;;;;;;;;;;15.30;71.50;;;;;;4955731;28;19910;-75
2023/07/12 02:37:15;;;;;;;;;;;15.30;71.60;;;;;;4971646;28;19914;-75
2023/07/12 02:39:40;;;;;;;;;;;15.30;71.60;;;;;;4972950;28;19953;-75
2023/07/12 02:42:06;;;;;;;;;;;15.30;71.70;;;;;;4955381;28;20369;-75
2023/07/12 02:44:32;;;;;;;;;;;15.40;71.70;;;;;;4987948;28;19926;-75
2023/07/12 02:46:57;;;;;;;;;;;15.40;71.60;;;;;;4972770;28;20417;-75
2023/07/12 02:49:23;;;;;;;;;;;15.50;71.70;;;;;;4987669;28;19918;-72
2023/07/12 02:51:48;;;;;;;;;;;15.50;71.60;;;;;;4972660;28;19957;-74
2023/07/12 02:54:14;;;;;;;;;;;15.50;71.50;;;;;;4990181;28;19918;-74
2023/07/12 02:56:40;;;;;;;;;;;15.50;71.50;;;;;;4956289;28;19914;-74
2023/07/12 02:59:05;;;;;;;;;;;15.50;71.50;;;;;;4955171;28;19914;-74
2023/07/12 03:01:31;;;;;;;;;;;15.50;71.60;;;;;;4954920;28;19921;-75
2023/07/12 03:03:57;;;;;;;;;;;15.50;71.60;;;;;;4955427;28;19953;-75
2023/07/12 03:06:23;;;;;;;;;;;15.50;71.70;;;;;;4972523;28;19918;-75
2023/07/12 03:08:49;;;;;;;;;;;15.60;71.70;;;;;;4954977;28;19914;-75
2023/07/12 03:11:15;;;;;;;;;;;15.60;71.60;;;;;;4972274;28;20017;-75
2023/07/12 03:13:40;;;;;;;;;;;15.60;71.60;;;;;;4972367;28;19957;-74
2023/07/12 03:16:07;;;;;;;;;;;15.60;71.70;;;;;;4954888;28;19917;-74
2023/07/12 03:18:32;;;;;;;;;;;15.70;71.70;;;;;;4972205;28;20381;-74
2023/07/12 03:20:59;;;;;;;;;;;15.70;71.60;;;;;;4972103;28;19910;-74
2023/07/12 03:23:24;;;;;;;;;;;15.70;71.60;;;;;;4972219;28;19920;-74
2023/07/12 03:25:50;;;;;;;;;;;15.70;71.60;;;;;;4954932;28;19918;-75
2023/07/12 03:28:16;;;;;;;;;;;15.70;71.60;;;;;;4971913;28;19957;-73
2023/07/12 03:30:41;;;;;;;;;;;15.70;71.70;;;;;;4972061;28;20362;-75
2023/07/12 03:33:07;;;;;;;;;;;15.70;71.60;;;;;;4953737;28;19921;-74
2023/07/12 03:35:32;;;;;;;;;;;15.70;71.70;;;;;;4954556;28;19911;-75
2023/07/12 03:37:58;;;;;;;;;;;15.80;71.80;;;;;;4971966;28;19921;-75
2023/07/12 03:40:24;;;;;;;;;;;15.70;71.70;;;;;;4971736;28;19910;-73
2023/07/12 03:42:49;;;;;;;;;;;15.80;71.80;;;;;;4971665;28;20389;-75
2023/07/12 03:45:15;;;;;;;;;;;15.80;71.70;;;;;;4954152;28;19918;-75
2023/07/12 03:47:40;;;;;;;;;;;15.80;71.70;;;;;;4971658;28;19916;-74
2023/07/12 03:50:06;;;;;;;;;;;15.80;71.70;;;;;;4971618;28;19945;-72
2023/07/12 03:52:32;;;;;;;;;;;15.80;71.70;;;;;;4954509;28;19910;-73
2023/07/12 03:54:57;;;;;;;;;;;15.80;71.70;;;;;;4954257;28;20353;-74
2023/07/12 03:57:23;;;;;;;;;;;15.80;71.70;;;;;;4954000;28;19925;-74
2023/07/12 03:59:49;;;;;;;;;;;15.80;71.70;;;;;;4971074;28;19997;-75
2023/07/12 04:02:15;;;;;;;;;;;15.80;71.70;;;;;;4986185;28;20012;-74
2023/07/12 04:04:40;;;;;;;;;;;15.90;71.70;;;;;;4971313;28;19914;-75
2023/07/12 04:07:07;;;;;;;;;;;15.90;71.70;;;;;;4954067;28;19976;-75
2023/07/12 04:09:33;;;;;;;;;;;15.90;71.70;;;;;;4971367;28;19910;-73
2023/07/12 04:11:58;;;;;;;;;;;15.90;71.70;;;;;;4971375;28;20317;-75
2023/07/12 04:14:24;;;;;;;;;;;15.90;71.60;;;;;;4971156;28;19918;-75
2023/07/12 04:16:49;;;;;;;;;;;15.80;71.60;;;;;;4953993;28;20304;-73
2023/07/12 04:19:15;;;;;;;;;;;15.90;71.70;;;;;;4985974;28;19929;-73
2023/07/12 04:21:41;;;;;;;;;;;15.90;71.70;;;;;;4953608;28;19918;-73
2023/07/12 04:24:06;;;;;;;;;;;15.80;71.70;;;;;;4971071;28;19970;-73
2023/07/12 04:26:32;;;;;;;;;;;15.80;71.70;;;;;;4970929;28;20003;-75
2023/07/12 04:28:58;;;;;;;;;;;15.80;71.70;;;;;;4986412;28;19989;-75
2023/07/12 04:31:24;;;;;;;;;;;15.80;71.80;;;;;;4955846;28;19914;-75
2023/07/12 04:33:49;;;;;;;;;;;15.80;71.80;;;;;;4953466;28;20373;-75
2023/07/12 04:36:16;;;;;;;;;;;15.80;71.80;;;;;;4970874;28;20017;-73
2023/07/12 04:38:42;;;;;;;;;;;15.90;71.80;;;;;;4970749;28;19953;-74
2023/07/12 04:41:08;;;;;;;;;;;15.80;71.80;;;;;;4953269;28;21821;-75
2023/07/12 04:43:34;;;;;;;;;;;15.80;71.70;;;;;;4969537;28;19957;-73
2023/07/12 04:46:00;;;;;;;;;;;15.80;71.80;;;;;;4970593;28;19913;-73
2023/07/12 04:48:25;;;;;;;;;;;15.80;71.80;;;;;;4970638;28;20333;-75
2023/07/12 04:50:52;;;;;;;;;;;15.80;71.80;;;;;;4953053;28;19918;-75
2023/07/12 04:53:18;;;;;;;;;;;15.80;71.80;;;;;;4970551;28;19927;-75
2023/07/12 04:55:43;;;;;;;;;;;15.80;71.80;;;;;;4970527;28;19922;-73
2023/07/12 04:58:09;;;;;;;;;;;15.80;71.80;;;;;;4970185;28;19921;-75
2023/07/12 05:00:35;;;;;;;;;;;15.70;71.70;;;;;;4985148;28;19924;-73
2023/07/12 05:03:00;;;;;;;;;;;15.70;71.80;;;;;;4970226;28;19972;-73
2023/07/12 05:05:26;;;;;;;;;;;15.70;71.90;;;;;;4970250;28;19914;-75
2023/07/12 05:07:52;;;;;;;;;;;15.80;72.00;;;;;;4970274;28;19921;-75
2023/07/12 05:10:17;;;;;;;;;;;15.80;71.90;;;;;;4970010;28;19910;-75
2023/07/12 05:12:43;;;;;;;;;;;15.80;71.90;;;;;;4952777;28;20005;-75
2023/07/12 05:15:09;;;;;;;;;;;15.80;71.90;;;;;;4952451;28;19933;-75
2023/07/12 05:17:35;;;;;;;;;;;15.80;71.90;;;;;;4969614;28;19910;-75
2023/07/12 05:20:03;;;;;;;;;;;15.80;71.90;;;;;;4952647;28;19948;-73
2023/07/12 05:22:29;;;;;;;;;;;15.90;72.00;;;;;;4969816;28;20401;-73
2023/07/12 05:24:55;;;;;;;;;;;15.90;72.00;;;;;;4984809;28;20008;-73
2023/07/12 05:27:20;;;;;;;;;;;15.90;72.00;;;;;;4969567;28;20179;-73
2023/07/12 05:29:46;;;;;;;;;;;16.00;72.00;;;;;;4984666;28;19922;-73
2023/07/12 05:32:13;;;;;;;;;;;16.00;72.00;;;;;;4969876;28;19925;-73
2023/07/12 05:34:39;;;;;;;;;;;16.00;72.00;;;;;;4984392;28;19918;-75
2023/07/12 05:37:04;;;;;;;;;;;16.10;72.00;;;;;;4969460;28;20009;-73
2023/07/12 05:39:30;;;;;;;;;;;16.10;72.00;;;;;;4969568;28;20042;-75
2023/07/12 05:41:55;;;;;;;;;;;16.10;71.90;;;;;;4969485;28;19949;-75
2023/07/12 05:44:21;;;;;;;;;;;16.10;71.90;;;;;;4952132;28;19914;-75
2023/07/12 05:46:47;;;;;;;;;;;16.20;72.00;;;;;;4984677;28;19926;-73
2023/07/12 05:49:13;;;;;;;;;;;16.20;72.00;;;;;;4969308;28;19914;-73
2023/07/12 05:51:38;;;;;;;;;;;16.20;72.00;;;;;;4969445;28;19918;-75
2023/07/12 05:54:04;;;;;;;;;;;16.30;72.10;;;;;;4969358;28;19914;-73
2023/07/12 05:56:29;;;;;;;;;;;16.40;72.00;;;;;;4969105;28;19925;-73
2023/07/12 05:58:55;;;;;;;;;;;16.40;71.90;;;;;;4951725;28;19918;-73
2023/07/12 06:01:21;;;;;;;;;;;16.60;71.80;;;;;;4984006;28;19918;-75
2023/07/12 06:03:46;;;;;;;;;;;16.60;71.70;;;;;;4971613;28;19918;-72
2023/07/12 06:06:12;;;;;;;;;;;16.70;71.70;;;;;;4970705;28;19960;-73
2023/07/12 06:08:38;;;;;;;;;;;16.70;71.70;;;;;;4969034;28;19921;-75
2023/07/12 06:11:03;;;;;;;;;;;16.80;71.80;;;;;;4969094;28;20051;-74
2023/07/12 06:13:29;;;;;;;;;;;17.00;71.80;;;;;;4984180;28;19921;-73
2023/07/12 06:15:54;;;;;;;;;;;17.40;71.70;;;;;;4969121;28;19918;-73
2023/07/12 06:18:20;;;;;;;;;;;17.80;71.40;;;;;;4969343;28;19910;-73
2023/07/12 06:20:46;;;;;;;;;;;18.50;71.10;;;;;;4969114;28;20001;-73
2023/07/12 06:23:11;;;;;;;;;;;19.00;70.30;;;;;;4951658;28;19969;-73
2023/07/12 06:25:37;;;;;;;;;;;19.30;70.10;;;;;;4969176;28;19914;-73
2023/07/12 06:28:03;;;;;;;;;;;19.30;69.80;;;;;;4967303;28;19973;-73
2023/07/12 06:30:29;;;;;;;;;;;19.00;69.90;;;;;;4968662;28;20049;-73
2023/07/12 06:32:55;;;;;;;;;;;18.70;70.20;;;;;;4951572;28;19962;-73
2023/07/12 06:35:20;;;;;;;;;;;18.50;70.60;;;;;;4969187;28;19914;-73
2023/07/12 06:37:46;;;;;;;;;;;18.40;71.10;;;;;;4967355;28;19989;-75
2023/07/12 06:40:12;;;;;;;;;;;18.40;71.20;;;;;;4968361;28;20366;-73
2023/07/12 06:42:37;;;;;;;;;;;18.40;71.40;;;;;;4968697;28;19961;-73
2023/07/12 06:45:03;;;;;;;;;;;18.70;71.60;;;;;;4967367;28;19961;-75
2023/07/12 06:47:30;;;;;;;;;;;19.40;71.00;;;;;;4968705;28;19921;-73
2023/07/12 06:49:57;;;;;;;;;;;19.60;70.50;;;;;;4968884;28;20112;-74
2023/07/12 06:52:22;;;;;;;;;;;19.80;70.30;;;;;;4951465;28;20299;-73
2023/07/12 06:54:48;;;;;;;;;;;20.00;70.20;;;;;;4968877;28;19914;-73
2023/07/12 06:57:13;;;;;;;;;;;20.10;70.00;;;;;;4968769;28;19976;-73
2023/07/12 06:59:40;;;;;;;;;;;20.00;69.90;;;;;;4950832;28;19925;-72
2023/07/12 07:02:08;;;;;;;;;;;19.80;70.00;;;;;;4983265;28;19914;-73
2023/07/12 07:04:33;;;;;;;;;;;19.60;70.40;;;;;;4968737;28;20310;-73
2023/07/12 07:06:59;;;;;;;;;;;19.50;70.60;;;;;;4984263;28;19968;-67
2023/07/12 07:09:25;;;;;;;;;;;19.40;70.70;;;;;;4954471;28;20305;-73
2023/07/12 07:11:50;;;;;;;;;;;19.40;70.90;;;;;;4987005;28;19922;-73
2023/07/12 07:14:16;;;;;;;;;;;19.60;71.10;;;;;;4972208;28;19914;-73
2023/07/12 07:16:42;;;;;;;;;;;19.80;70.80;;;;;;4972058;28;20393;-73
2023/07/12 07:19:08;;;;;;;;;;;20.10;71.00;;;;;;4971828;28;19921;-73
2023/07/12 07:21:33;;;;;;;;;;;20.50;71.00;;;;;;4971756;28;20302;-73
2023/07/12 07:23:59;;;;;;;;;;;21.30;71.30;;;;;;4971510;28;19925;-73
2023/07/12 07:26:25;;;;;;;;;;;22.40;70.70;;;;;;4971814;28;19914;-73
2023/07/12 07:28:51;;;;;;;;;;;22.70;69.30;;;;;;4971636;28;19930;-73
2023/07/12 07:31:16;;;;;;;;;;;22.30;69.10;;;;;;4954316;28;20242;-73
2023/07/12 07:33:42;;;;;;;;;;;21.70;69.50;;;;;;4971717;28;19914;-73
2023/07/12 07:36:10;;;;;;;;;;;21.00;70.10;;;;;;4970558;28;20415;-75
2023/07/12 07:38:36;;;;;;;;;;;20.50;70.50;;;;;;4974560;28;19921;-74
2023/07/12 07:41:04;;;;;;;;;;;20.10;70.70;;;;;;4972578;28;19913;-74
2023/07/12 07:43:29;;;;;;;;;;;19.70;71.10;;;;;;4971457;28;20262;-74
2023/07/12 07:45:55;;;;;;;;;;;19.60;71.60;;;;;;4971455;28;20376;-74
2023/07/12 07:48:20;;;;;;;;;;;19.60;71.80;;;;;;4954266;28;19915;-75
2023/07/12 07:50:46;;;;;;;;;;;19.90;71.70;;;;;;4986194;28;19922;-74
2023/07/12 07:53:12;;;;;;;;;;;20.00;71.40;;;;;;4953947;28;19915;-74
2023/07/12 07:55:44;;;;;;;;;;;19.90;71.20;;;;;;4971273;28;19921;-74
2023/07/12 07:58:11;;;;;;;;;;;19.70;71.10;;;;;;4971245;28;19958;-75
2023/07/12 08:00:37;;;;;;;;;;;19.40;71.30;;;;;;4971267;28;19922;-75
2023/07/12 08:03:06;;;;;;;;;;;19.30;71.60;;;;;;4969610;28;20008;-74
2023/07/12 08:05:32;;;;;;;;;;;19.20;72.00;;;;;;4970809;28;20278;-74
2023/07/12 08:07:58;;;;;;;;;;;19.30;72.30;;;;;;4971137;28;20001;-75
2023/07/12 08:10:24;;;;;;;;;;;19.50;72.30;;;;;;4970967;28;19911;-74
2023/07/12 08:12:51;;;;;;;;;;;19.60;72.00;;;;;;4971035;28;19922;-74
2023/07/12 08:15:20;;;;;;;;;;;19.70;71.90;;;;;;4970874;28;19914;-74
2023/07/12 08:17:46;;;;;;;;;;;19.80;71.80;;;;;;4953038;28;19914;-75
2023/07/12 08:20:12;;;;;;;;;;;20.00;71.80;;;;;;4970795;28;19914;-75
2023/07/12 08:22:37;;;;;;;;;;;20.00;71.60;;;;;;4970326;28;19918;-74
2023/07/12 08:25:03;;;;;;;;;;;19.90;71.50;;;;;;4970392;28;20358;-74
2023/07/12 08:27:30;;;;;;;;;;;19.70;71.60;;;;;;4970126;28;20296;-74
2023/07/12 08:29:58;;;;;;;;;;;19.70;71.80;;;;;;4952839;28;19924;-74
2023/07/12 08:32:27;;;;;;;;;;;19.70;71.90;;;;;;4968589;28;20282;-74
2023/07/12 08:34:53;;;;;;;;;;;19.60;71.90;;;;;;4954053;28;19914;-74
2023/07/12 08:37:19;;;;;;;;;;;19.60;72.00;;;;;;4969781;28;20001;-74
2023/07/12 08:39:44;;;;;;;;;;;19.60;71.80;;;;;;4952866;28;20032;-74
2023/07/12 08:42:20;;;;;;;;;;;19.60;72.00;;;;;;4952959;28;20309;-74
2023/07/12 08:44:46;;;;;;;;;;;19.60;72.00;;;;;;4970524;28;19914;-74
2023/07/12 08:47:32;;;;;;;;;;;19.70;71.90;;;;;;4952676;28;19953;-74
2023/07/12 08:49:58;;;;;;;;;;;19.70;71.70;;;;;;4969924;28;19987;-75
2023/07/12 08:52:27;;;;;;;;;;;19.60;71.60;;;;;;4969866;28;19957;-75
2023/07/12 08:54:54;;;;;;;;;;;19.40;71.60;;;;;;4969789;28;20017;-74
2023/07/12 08:57:24;;;;;;;;;;;19.30;71.80;;;;;;4969411;28;19925;-73
2023/07/12 09:00:01;;;;;;;;;;;19.30;72.10;;;;;;4969346;28;19910;-73
2023/07/12 09:02:26;;;;;;;;;;;19.40;72.20;;;;;;4969434;28;20020;-73
2023/07/12 09:04:56;;;;;;;;;;;19.50;72.20;;;;;;4969902;28;20049;-73
2023/07/12 09:07:31;;;;;;;;;;;19.80;72.50;;;;;;4969710;28;20433;-73
2023/07/12 09:09:58;;;;;;;;;;;20.10;72.10;;;;;;4969620;28;19914;-73
2023/07/12 09:12:25;;;;;;;;;;;20.30;72.00;;;;;;4969778;28;20249;-73
2023/07/12 09:14:52;;;;;;;;;;;20.40;71.80;;;;;;4955377;28;20020;-73
2023/07/12 09:17:22;;;;;;;;;;;20.50;71.60;;;;;;4969909;28;20273;-73
2023/07/12 09:19:48;;;;;;;;;;;20.40;71.50;;;;;;4969511;28;19914;-73
2023/07/12 09:22:14;;;;;;;;;;;20.30;71.40;;;;;;4951967;28;19941;-73
2023/07/12 09:24:44;;;;;;;;;;;20.20;71.50;;;;;;4969668;28;19910;-73
2023/07/12 09:27:15;;;;;;;;;;;20.10;71.80;;;;;;4969353;28;19917;-73
2023/07/12 09:29:40;;;;;;;;;;;20.10;72.00;;;;;;4983052;28;19972;-73
2023/07/12 09:32:18;;;;;;;;;;;20.20;72.00;;;;;;4968096;28;19961;-73
2023/07/12 09:34:45;;;;;;;;;;;20.20;71.70;;;;;;4969095;28;20330;-73
2023/07/12 09:37:16;;;;;;;;;;;20.20;71.70;;;;;;4967486;28;19925;-73
2023/07/12 09:39:51;;;;;;;;;;;20.30;72.00;;;;;;4969800;28;19917;-73
2023/07/12 09:42:16;;;;;;;;;;;20.50;72.00;;;;;;4952253;28;19968;-73
2023/07/12 09:44:42;;;;;;;;;;;20.60;71.90;;;;;;4969791;28;20021;-73
2023/07/12 09:47:18;;;;;;;;;;;20.80;71.90;;;;;;4969535;28;19964;-74
2023/07/12 09:50:04;;;;;;;;;;;21.00;72.20;;;;;;4966749;28;19914;-73
2023/07/12 09:52:32;;;;;;;;;;;21.30;71.80;;;;;;4957440;28;19910;-73
2023/07/12 09:55:09;;;;;;;;;;;21.50;71.90;;;;;;4969442;28;19994;-73
2023/07/12 09:58:02;;;;;;;;;;;21.90;72.20;;;;;;4965898;28;19976;-73
2023/07/12 10:00:38;;;;;;;;;;;22.90;73.20;;;;;;4972046;28;19914;-73
2023/07/12 10:03:22;;;;;;;;;;;24.60;73.70;;;;;;4970955;28;19918;-73
2023/07/12 10:05:59;;;;;;;;;;;26.20;72.90;;;;;;4970039;28;20287;-73
2023/07/12 10:08:30;;;;;;;;;;;26.70;71.10;;;;;;4970245;28;20259;-73
2023/07/12 10:11:04;;;;;;;;;;;26.50;70.70;;;;;;4970122;28;19914;-73
2023/07/12 10:13:48;;;;;;;;;;;26.10;70.30;;;;;;4970089;28;19917;-73
2023/07/12 10:16:21;;;;;;;;;;;25.30;70.10;;;;;;4970800;28;19964;-73
2023/07/12 10:18:48;;;;;;;;;;;24.60;70.80;;;;;;4952753;28;19914;-73
2023/07/12 10:21:18;;;;;;;;;;;24.10;71.30;;;;;;4969796;28;19910;-72
2023/07/12 10:23:55;;;;;;;;;;;23.60;71.40;;;;;;4952660;28;19914;-72
2023/07/12 10:26:21;;;;;;;;;;;23.20;71.60;;;;;;4952242;28;19917;-72
2023/07/12 10:28:52;;;;;;;;;;;22.80;71.70;;;;;;4969787;28;19926;-73
2023/07/12 10:31:18;;;;;;;;;;;22.40;71.60;;;;;;4952651;28;19910;-73
2023/07/12 10:33:45;;;;;;;;;;;22.00;71.70;;;;;;4951977;28;20016;-73
2023/07/12 10:36:14;;;;;;;;;;;21.60;71.40;;;;;;4969858;28;19910;-73
2023/07/12 10:38:40;;;;;;;;;;;21.30;71.90;;;;;;4969739;28;19946;-73
2023/07/12 10:41:08;;;;;;;;;;;21.20;72.30;;;;;;4953179;28;19977;-73
2023/07/12 10:43:42;;;;;;;;;;;21.40;72.60;;;;;;4973092;28;20390;-73
2023/07/12 10:46:10;;;;;;;;;;;21.70;72.60;;;;;;4973287;28;20226;-74
2023/07/12 10:48:37;;;;;;;;;;;22.00;72.60;;;;;;4967201;28;19933;-73
2023/07/12 10:51:17;;;;;;;;;;;22.30;72.40;;;;;;4973453;28;19918;-72
2023/07/12 10:53:49;;;;;;;;;;;22.60;72.20;;;;;;4972019;28;19915;-73
2023/07/12 10:56:17;;;;;;;;;;;22.70;71.90;;;;;;4971937;28;19925;-73
2023/07/12 10:58:48;;;;;;;;;;;22.60;71.70;;;;;;4955843;28;19910;-73
2023/07/12 11:01:33;;;;;;;;;;;22.40;71.60;;;;;;4955114;28;20021;-73
2023/07/12 11:04:12;;;;;;;;;;;22.30;72.10;;;;;;4972731;28;20005;-73
2023/07/12 11:06:56;;;;;;;;;;;22.90;73.30;;;;;;4955425;28;19960;-73
2023/07/12 11:09:21;;;;;;;;;;;24.30;74.30;;;;;;4970002;28;20273;-74
2023/07/12 11:11:57;;;;;;;;;;;25.80;73.50;;;;;;4972329;28;20077;-73
2023/07/12 11:14:25;;;;;;;;;;;26.10;71.90;;;;;;4967994;28;19958;-74
2023/07/12 11:17:03;;;;;;;;;;;25.60;70.90;;;;;;4972921;28;19911;-74
2023/07/12 11:19:34;;;;;;;;;;;25.10;70.90;;;;;;4972764;28;19968;-75
2023/07/12 11:22:03;;;;;;;;;;;24.70;71.20;;;;;;4972760;28;19996;-74
2023/07/12 11:24:31;;;;;;;;;;;24.30;71.60;;;;;;4955035;28;19945;-73
2023/07/12 11:26:58;;;;;;;;;;;24.10;71.90;;;;;;4972493;28;19914;-74
2023/07/12 11:29:23;;;;;;;;;;;23.90;71.90;;;;;;4986693;28;19922;-73
2023/07/12 11:31:57;;;;;;;;;;;23.80;71.80;;;;;;4971996;28;19933;-73
2023/07/12 11:34:24;;;;;;;;;;;23.70;71.80;;;;;;4972232;28;19933;-73
2023/07/12 11:36:54;;;;;;;;;;;23.80;72.20;;;;;;4971934;28;20074;-73
2023/07/12 11:39:21;;;;;;;;;;;23.90;72.40;;;;;;4971905;28;19921;-73
2023/07/12 11:42:08;;;;;;;;;;;24.00;72.00;;;;;;4971164;28;19918;-68
2023/07/12 11:44:34;;;;;;;;;;;23.90;71.90;;;;;;4971850;28;19921;-74
2023/07/12 11:47:00;;;;;;;;;;;23.80;71.90;;;;;;4972045;28;19914;-73
2023/07/12 11:49:28;;;;;;;;;;;23.70;71.90;;;;;;4971962;28;19921;-73
2023/07/12 11:51:54;;;;;;;;;;;23.70;72.00;;;;;;4972049;28;19926;-73
2023/07/12 11:54:20;;;;;;;;;;;23.60;71.90;;;;;;4971516;28;19910;-73
2023/07/12 11:56:47;;;;;;;;;;;23.40;71.80;;;;;;4972347;28;19914;-74
2023/07/12 11:59:17;;;;;;;;;;;23.20;71.70;;;;;;4971985;28;19911;-74
2023/07/12 12:01:46;;;;;;;;;;;23.10;72.00;;;;;;4972210;28;19914;-74
2023/07/12 12:04:22;;;;;;;;;;;23.40;72.80;;;;;;4972066;28;19914;-73
2023/07/12 12:06:52;;;;;;;;;;;23.80;72.70;;;;;;4972669;28;20354;-74
2023/07/12 12:09:21;;;;;;;;;;;24.20;72.60;;;;;;4987243;28;20354;-73
2023/07/12 12:11:47;;;;;;;;;;;24.60;72.60;;;;;;4972300;28;20378;-73
2023/07/12 12:14:18;;;;;;;;;;;24.80;72.10;;;;;;4971890;28;19996;-74
2023/07/12 12:16:51;;;;;;;;;;;24.80;71.70;;;;;;4972568;28;19922;-74
2023/07/12 12:19:17;;;;;;;;;;;24.70;71.70;;;;;;4971977;28;19921;-63
2023/07/12 12:21:46;;;;;;;;;;;24.80;72.00;;;;;;4971145;28;19925;-73
2023/07/12 12:24:16;;;;;;;;;;;24.80;71.90;;;;;;4969182;28;20414;-73
2023/07/12 12:26:42;;;;;;;;;;;24.90;72.20;;;;;;4953851;28;19918;-73
2023/07/12 12:29:14;;;;;;;;;;;25.20;72.40;;;;;;4971325;28;19930;-74
2023/07/12 12:31:51;;;;;;;;;;;25.50;72.60;;;;;;4975794;28;19918;-74
2023/07/12 12:34:17;;;;;;;;;;;25.70;72.30;;;;;;4971745;28;19968;-74
2023/07/12 12:37:15;;;;;;;;;;;25.90;72.30;;;;;;4954612;28;20350;-73
2023/07/12 12:39:41;;;;;;;;;;;26.00;72.10;;;;;;4928922;28;20025;-72
2023/07/12 12:42:20;;;;;;;;;;;26.10;71.90;;;;;;4971059;28;19918;-73
2023/07/12 12:44:45;;;;;;;;;;;26.10;71.80;;;;;;4954129;28;20251;-73
2023/07/12 12:47:18;;;;;;;;;;;25.90;71.50;;;;;;4971589;28;19921;-74
2023/07/12 12:49:44;;;;;;;;;;;25.70;71.50;;;;;;4971579;28;19996;-74
2023/07/12 12:52:19;;;;;;;;;;;25.40;71.50;;;;;;4971504;28;19946;-75
2023/07/12 12:54:45;;;;;;;;;;;25.10;71.60;;;;;;4971076;28;19910;-73
2023/07/12 12:57:10;;;;;;;;;;;24.90;71.80;;;;;;4950459;29;20280;-73
2023/07/12 12:59:36;;;;;;;;;;;24.80;71.90;;;;;;4935012;28;20009;-73
2023/07/12 13:02:01;;;;;;;;;;;24.70;72.20;;;;;;4934654;29;20004;-73
2023/07/12 13:04:27;;;;;;;;;;;24.80;72.50;;;;;;4969886;28;19918;-73
2023/07/12 13:06:52;;;;;;;;;;;25.00;72.50;;;;;;4971120;28;19980;-75
2023/07/12 13:09:20;;;;;;;;;;;25.40;72.90;;;;;;4970904;28;19974;-73
2023/07/12 13:11:47;;;;;;;;;;;25.70;72.40;;;;;;4953325;28;19925;-75
2023/07/12 13:14:12;;;;;;;;;;;25.70;71.80;;;;;;4970782;28;19921;-74
2023/07/12 13:16:38;;;;;;;;;;;25.60;71.80;;;;;;4937740;28;19927;-75
2023/07/12 13:19:03;;;;;;;;;;;25.60;71.60;;;;;;4970810;28;19918;-73
2023/07/12 13:21:29;;;;;;;;;;;25.50;71.70;;;;;;4970531;28;19914;-73
2023/07/12 13:23:54;;;;;;;;;;;25.50;71.90;;;;;;4971034;28;19914;-74
2023/07/12 13:26:22;;;;;;;;;;;25.50;71.90;;;;;;4953683;28;19973;-73
2023/07/12 13:28:48;;;;;;;;;;;25.60;72.00;;;;;;4970329;28;19922;-74
2023/07/12 13:31:15;;;;;;;;;;;25.70;72.00;;;;;;4952784;28;19917;-74
2023/07/12 13:33:41;;;;;;;;;;;25.80;71.80;;;;;;4969894;28;19980;-72
2023/07/12 13:36:16;;;;;;;;;;;25.70;71.70;;;;;;4970741;28;20346;-72
2023/07/12 13:38:42;;;;;;;;;;;25.60;71.60;;;;;;4970584;28;19910;-73
2023/07/12 13:41:10;;;;;;;;;;;25.50;71.60;;;;;;4970366;28;20008;-74
2023/07/12 13:43:36;;;;;;;;;;;25.50;71.80;;;;;;4969620;28;20370;-73
2023/07/12 13:46:02;;;;;;;;;;;25.40;71.70;;;;;;4951989;28;19914;-73
2023/07/12 13:48:27;;;;;;;;;;;25.30;71.70;;;;;;4952321;28;19918;-70
2023/07/12 13:50:53;;;;;;;;;;;25.30;71.70;;;;;;4969992;28;19921;-73
2023/07/12 13:53:19;;;;;;;;;;;25.10;71.60;;;;;;4969779;28;19925;-74
2023/07/12 13:55:44;;;;;;;;;;;25.00;71.50;;;;;;4970009;28;20004;-74
2023/07/12 13:58:10;;;;;;;;;;;24.80;71.50;;;;;;4970022;28;19914;-74
2023/07/12 14:00:35;;;;;;;;;;;24.80;71.70;;;;;;4970068;28;19968;-73
2023/07/12 14:03:01;;;;;;;;;;;24.80;71.90;;;;;;4985454;28;19918;-74
2023/07/12 14:05:27;;;;;;;;;;;24.90;71.90;;;;;;4985270;28;19918;-73
2023/07/12 14:07:54;;;;;;;;;;;24.90;71.80;;;;;;4970441;28;19911;-73
2023/07/12 14:10:20;;;;;;;;;;;24.90;71.80;;;;;;4985202;28;19924;-73
2023/07/12 14:12:47;;;;;;;;;;;24.90;71.60;;;;;;4972411;28;20004;-73
2023/07/12 14:15:21;;;;;;;;;;;24.70;71.60;;;;;;4970217;28;19910;-74
2023/07/12 14:17:46;;;;;;;;;;;24.70;71.90;;;;;;4976912;28;19918;-73